sensor_id;sensor_type;location;lat;lon;timestamp;pressure;altitude;pressure_sealevel;temperature;humidity
41684;BME280;27369;52.030;4.586;2022-07-25T00:00:36;101298.22;;;19.29;100.00
41684;BME280;27369;52.030;4.586;2022-07-25T00:03:01;101283.34;;;19.32;100.00
41684;BME280;27369;52.030;4.586;2022-07-25T00:05:27;101276.28;;;19.31;100.00
41684;BME280;27369;52.030;4.586;2022-07-25T00:07:52;101271.72;;;19.25;100.00
41684;BME280;27369;52.030;4.586;2022-07-25T00:10:18;101266.25;;;19.19;100.00
41684;BME280;27369;52.030;4.586;2022-07-25T00:12:43;101252.97;;;19.16;100.00
41684;BME280;27369;52.030;4.586;2022-07-25T00:15:09;101250.16;;;19.12;100.00
41684;BME280;27369;52.030;4.586;2022-07-25T00:17:35;101244.00;;;19.11;100.00
41684;BME280;27369;52.030;4.586;2022-07-25T00:20:01;101235.22;;;19.12;100.00
41684;BME280;27369;52.030;4.586;2022-07-25T00:22:26;101224.44;;;19.05;100.00
41684;BME280;27369;52.030;4.586;2022-07-25T00:24:51;101214.09;;;19.12;100.00
41684;BME280;27369;52.030;4.586;2022-07-25T00:27:17;101211.78;;;19.23;100.00
41684;BME280;27369;52.030;4.586;2022-07-25T00:29:42;101205.63;;;19.22;100.00
41684;BME280;27369;52.030;4.586;2022-07-25T00:32:08;101203.19;;;19.30;100.00
41684;BME280;27369;52.030;4.586;2022-07-25T00:34:33;101198.81;;;19.31;100.00
41684;BME280;27369;52.030;4.586;2022-07-25T00:36:58;101191.09;;;19.38;100.00
41684;BME280;27369;52.030;4.586;2022-07-25T00:39:24;101186.41;;;19.28;100.00
41684;BME280;27369;52.030;4.586;2022-07-25T00:41:49;101185.22;;;19.18;100.00
41684;BME280;27369;52.030;4.586;2022-07-25T00:44:28;101178.09;;;19.16;100.00
41684;BME280;27369;52.030;4.586;2022-07-25T00:46:54;101169.28;;;19.14;100.00
41684;BME280;27369;52.030;4.586;2022-07-25T00:49:20;101160.47;;;19.13;100.00
41684;BME280;27369;52.030;4.586;2022-07-25T00:51:45;101155.34;;;19.19;100.00
41684;BME280;27369;52.030;4.586;2022-07-25T00:54:11;101150.91;;;19.18;100.00
41684;BME280;27369;52.030;4.586;2022-07-25T00:56:37;101142.91;;;19.15;100.00
41684;BME280;27369;52.030;4.586;2022-07-25T00:59:03;101134.34;;;19.24;100.00
41684;BME280;27369;52.030;4.586;2022-07-25T01:01:28;101126.56;;;19.29;100.00
41684;BME280;27369;52.030;4.586;2022-07-25T01:03:54;101114.88;;;19.52;100.00
41684;BME280;27369;52.030;4.586;2022-07-25T01:06:20;101106.97;;;19.52;100.00
41684;BME280;27369;52.030;4.586;2022-07-25T01:08:46;101106.66;;;19.41;100.00
41684;BME280;27369;52.030;4.586;2022-07-25T01:11:12;101100.56;;;19.44;100.00
41684;BME280;27369;52.030;4.586;2022-07-25T01:13:37;101095.59;;;19.55;100.00
41684;BME280;27369;52.030;4.586;2022-07-25T01:16:03;101090.47;;;19.61;100.00
41684;BME280;27369;52.030;4.586;2022-07-25T01:18:28;101083.88;;;19.45;100.00
41684;BME280;27369;52.030;4.586;2022-07-25T01:20:54;101090.09;;;19.47;100.00
41684;BME280;27369;52.030;4.586;2022-07-25T01:23:19;101079.44;;;19.44;100.00
41684;BME280;27369;52.030;4.586;2022-07-25T01:25:44;101075.84;;;19.42;100.00
41684;BME280;27369;52.030;4.586;2022-07-25T01:28:10;101063.44;;;19.38;100.00
41684;BME280;27369;52.030;4.586;2022-07-25T01:30:35;101055.88;;;19.52;100.00
41684;BME280;27369;52.030;4.586;2022-07-25T01:33:01;101054.56;;;19.36;100.00
41684;BME280;27369;52.030;4.586;2022-07-25T01:35:26;101044.94;;;19.38;100.00
41684;BME280;27369;52.030;4.586;2022-07-25T01:37:51;101042.00;;;19.25;100.00
41684;BME280;27369;52.030;4.586;2022-07-25T01:40:17;101023.50;;;19.25;100.00
41684;BME280;27369;52.030;4.586;2022-07-25T01:42:42;101017.28;;;19.23;100.00
41684;BME280;27369;52.030;4.586;2022-07-25T01:45:09;101021.63;;;19.21;100.00
41684;BME280;27369;52.030;4.586;2022-07-25T01:47:35;101010.31;;;19.25;100.00
41684;BME280;27369;52.030;4.586;2022-07-25T01:50:00;100990.94;;;19.25;100.00
41684;BME280;27369;52.030;4.586;2022-07-25T01:52:26;100992.78;;;19.29;100.00
41684;BME280;27369;52.030;4.586;2022-07-25T01:54:51;100980.59;;;19.34;100.00
41684;BME280;27369;52.030;4.586;2022-07-25T01:57:16;100978.06;;;19.39;100.00
41684;BME280;27369;52.030;4.586;2022-07-25T01:59:42;100963.63;;;19.24;100.00
41684;BME280;27369;52.030;4.586;2022-07-25T02:02:08;100959.28;;;19.26;100.00
41684;BME280;27369;52.030;4.586;2022-07-25T02:04:35;100943.44;;;19.26;100.00
41684;BME280;27369;52.030;4.586;2022-07-25T02:07:00;100938.97;;;19.24;100.00
41684;BME280;27369;52.030;4.586;2022-07-25T02:09:26;100931.91;;;19.23;100.00
41684;BME280;27369;52.030;4.586;2022-07-25T02:11:51;100923.13;;;19.24;100.00
41684;BME280;27369;52.030;4.586;2022-07-25T02:14:17;100920.25;;;19.13;100.00
41684;BME280;27369;52.030;4.586;2022-07-25T02:16:42;100907.72;;;19.06;100.00
41684;BME280;27369;52.030;4.586;2022-07-25T02:19:07;100906.59;;;18.96;100.00
41684;BME280;27369;52.030;4.586;2022-07-25T02:21:33;100893.50;;;19.01;100.00
41684;BME280;27369;52.030;4.586;2022-07-25T02:23:58;100891.66;;;18.97;100.00
41684;BME280;27369;52.030;4.586;2022-07-25T02:26:24;100881.97;;;18.96;100.00
41684;BME280;27369;52.030;4.586;2022-07-25T02:28:50;100879.28;;;18.94;100.00
41684;BME280;27369;52.030;4.586;2022-07-25T02:31:15;100866.97;;;18.95;100.00
41684;BME280;27369;52.030;4.586;2022-07-25T02:33:41;100865.25;;;18.97;100.00
41684;BME280;27369;52.030;4.586;2022-07-25T02:36:06;100860.94;;;19.00;100.00
41684;BME280;27369;52.030;4.586;2022-07-25T02:38:32;100859.91;;;18.94;100.00
41684;BME280;27369;52.030;4.586;2022-07-25T02:40:57;100857.41;;;18.98;100.00
41684;BME280;27369;52.030;4.586;2022-07-25T02:43:23;100860.69;;;18.90;100.00
41684;BME280;27369;52.030;4.586;2022-07-25T02:45:48;100854.44;;;18.86;100.00
41684;BME280;27369;52.030;4.586;2022-07-25T02:48:13;100850.75;;;18.79;100.00
41684;BME280;27369;52.030;4.586;2022-07-25T02:50:39;100854.25;;;18.78;100.00
41684;BME280;27369;52.030;4.586;2022-07-25T02:53:05;100848.25;;;18.84;100.00
41684;BME280;27369;52.030;4.586;2022-07-25T02:55:30;100853.38;;;18.79;100.00
41684;BME280;27369;52.030;4.586;2022-07-25T02:57:56;100848.31;;;18.87;100.00
41684;BME280;27369;52.030;4.586;2022-07-25T03:00:21;100853.63;;;18.89;100.00
41684;BME280;27369;52.030;4.586;2022-07-25T03:02:47;100850.81;;;18.83;100.00
41684;BME280;27369;52.030;4.586;2022-07-25T03:05:13;100854.19;;;18.77;100.00
41684;BME280;27369;52.030;4.586;2022-07-25T03:07:40;100848.72;;;18.71;100.00
41684;BME280;27369;52.030;4.586;2022-07-25T03:10:08;100842.44;;;18.66;100.00
41684;BME280;27369;52.030;4.586;2022-07-25T03:12:34;100838.72;;;18.91;100.00
41684;BME280;27369;52.030;4.586;2022-07-25T03:15:00;100837.19;;;19.00;100.00
41684;BME280;27369;52.030;4.586;2022-07-25T03:17:26;100839.66;;;18.93;100.00
41684;BME280;27369;52.030;4.586;2022-07-25T03:19:53;100841.31;;;18.89;100.00
41684;BME280;27369;52.030;4.586;2022-07-25T03:22:18;100842.16;;;18.87;100.00
41684;BME280;27369;52.030;4.586;2022-07-25T03:24:43;100837.88;;;18.92;100.00
41684;BME280;27369;52.030;4.586;2022-07-25T03:27:09;100838.28;;;19.09;100.00
41684;BME280;27369;52.030;4.586;2022-07-25T03:29:34;100840.78;;;19.04;100.00
41684;BME280;27369;52.030;4.586;2022-07-25T03:32:00;100836.97;;;18.90;100.00
41684;BME280;27369;52.030;4.586;2022-07-25T03:34:26;100836.44;;;18.71;100.00
41684;BME280;27369;52.030;4.586;2022-07-25T03:36:51;100832.81;;;19.01;100.00
41684;BME280;27369;52.030;4.586;2022-07-25T03:39:17;100831.47;;;19.18;100.00
41684;BME280;27369;52.030;4.586;2022-07-25T03:41:42;100836.94;;;19.26;100.00
41684;BME280;27369;52.030;4.586;2022-07-25T03:44:08;100846.94;;;19.39;100.00
41684;BME280;27369;52.030;4.586;2022-07-25T03:46:34;100839.09;;;19.44;100.00
41684;BME280;27369;52.030;4.586;2022-07-25T03:48:59;100827.72;;;19.46;100.00
41684;BME280;27369;52.030;4.586;2022-07-25T03:51:24;100829.28;;;19.38;100.00
41684;BME280;27369;52.030;4.586;2022-07-25T03:53:50;100833.88;;;19.47;100.00
41684;BME280;27369;52.030;4.586;2022-07-25T03:56:34;100829.69;;;19.55;100.00
41684;BME280;27369;52.030;4.586;2022-07-25T03:59:00;100830.69;;;19.60;100.00
41684;BME280;27369;52.030;4.586;2022-07-25T04:01:25;100831.56;;;19.61;100.00
41684;BME280;27369;52.030;4.586;2022-07-25T04:03:51;100828.19;;;19.66;100.00
41684;BME280;27369;52.030;4.586;2022-07-25T04:06:16;100826.44;;;19.67;100.00
41684;BME280;27369;52.030;4.586;2022-07-25T04:08:42;100823.06;;;19.74;100.00
41684;BME280;27369;52.030;4.586;2022-07-25T04:11:08;100822.09;;;19.70;100.00
41684;BME280;27369;52.030;4.586;2022-07-25T04:13:33;100820.47;;;19.76;100.00
41684;BME280;27369;52.030;4.586;2022-07-25T04:15:59;100827.53;;;19.77;100.00
41684;BME280;27369;52.030;4.586;2022-07-25T04:18:24;100832.03;;;19.82;100.00
41684;BME280;27369;52.030;4.586;2022-07-25T04:20:49;100833.88;;;19.85;100.00
41684;BME280;27369;52.030;4.586;2022-07-25T04:23:15;100835.69;;;19.87;100.00
41684;BME280;27369;52.030;4.586;2022-07-25T04:25:40;100828.59;;;19.85;100.00
41684;BME280;27369;52.030;4.586;2022-07-25T04:28:05;100837.50;;;19.90;100.00
41684;BME280;27369;52.030;4.586;2022-07-25T04:30:31;100845.38;;;19.88;100.00
41684;BME280;27369;52.030;4.586;2022-07-25T04:32:56;100840.94;;;19.86;100.00
41684;BME280;27369;52.030;4.586;2022-07-25T04:35:21;100850.66;;;19.87;100.00
41684;BME280;27369;52.030;4.586;2022-07-25T04:37:47;100850.72;;;19.90;100.00
41684;BME280;27369;52.030;4.586;2022-07-25T04:40:13;100855.19;;;19.94;100.00
41684;BME280;27369;52.030;4.586;2022-07-25T04:42:38;100853.50;;;19.98;100.00
41684;BME280;27369;52.030;4.586;2022-07-25T04:45:04;100854.59;;;20.07;100.00
41684;BME280;27369;52.030;4.586;2022-07-25T04:47:29;100850.22;;;20.09;100.00
41684;BME280;27369;52.030;4.586;2022-07-25T04:49:54;100839.03;;;20.23;100.00
41684;BME280;27369;52.030;4.586;2022-07-25T04:52:20;100855.97;;;20.31;100.00
41684;BME280;27369;52.030;4.586;2022-07-25T04:54:45;100866.66;;;20.38;100.00
41684;BME280;27369;52.030;4.586;2022-07-25T04:57:10;100870.34;;;20.45;100.00
41684;BME280;27369;52.030;4.586;2022-07-25T04:59:36;100876.56;;;20.49;100.00
41684;BME280;27369;52.030;4.586;2022-07-25T05:02:01;100871.28;;;20.50;100.00
41684;BME280;27369;52.030;4.586;2022-07-25T05:04:26;100871.47;;;20.58;100.00
41684;BME280;27369;52.030;4.586;2022-07-25T05:06:52;100873.34;;;20.64;100.00
41684;BME280;27369;52.030;4.586;2022-07-25T05:09:18;100874.22;;;20.63;100.00
41684;BME280;27369;52.030;4.586;2022-07-25T05:11:43;100876.16;;;20.71;100.00
41684;BME280;27369;52.030;4.586;2022-07-25T05:14:09;100883.25;;;20.74;100.00
41684;BME280;27369;52.030;4.586;2022-07-25T05:16:34;100882.44;;;20.79;100.00
41684;BME280;27369;52.030;4.586;2022-07-25T05:18:59;100880.66;;;20.77;100.00
41684;BME280;27369;52.030;4.586;2022-07-25T05:21:25;100880.72;;;20.81;100.00
41684;BME280;27369;52.030;4.586;2022-07-25T05:23:51;100886.06;;;20.83;100.00
41684;BME280;27369;52.030;4.586;2022-07-25T05:26:17;100882.63;;;20.89;100.00
41684;BME280;27369;52.030;4.586;2022-07-25T05:28:42;100878.28;;;20.94;100.00
41684;BME280;27369;52.030;4.586;2022-07-25T05:31:07;100886.31;;;20.98;100.00
41684;BME280;27369;52.030;4.586;2022-07-25T05:33:33;100896.19;;;21.07;100.00
41684;BME280;27369;52.030;4.586;2022-07-25T05:35:58;100892.84;;;21.19;100.00
41684;BME280;27369;52.030;4.586;2022-07-25T05:38:24;100896.41;;;21.21;100.00
41684;BME280;27369;52.030;4.586;2022-07-25T05:40:49;100900.97;;;21.29;100.00
41684;BME280;27369;52.030;4.586;2022-07-25T05:43:16;100902.13;;;21.45;100.00
41684;BME280;27369;52.030;4.586;2022-07-25T05:45:41;100911.09;;;21.55;100.00
41684;BME280;27369;52.030;4.586;2022-07-25T05:48:08;100910.38;;;21.67;100.00
41684;BME280;27369;52.030;4.586;2022-07-25T05:50:35;100915.91;;;21.81;100.00
41684;BME280;27369;52.030;4.586;2022-07-25T05:53:00;100926.34;;;21.70;100.00
41684;BME280;27369;52.030;4.586;2022-07-25T05:55:25;100943.06;;;21.66;100.00
41684;BME280;27369;52.030;4.586;2022-07-25T05:57:51;100938.81;;;21.77;100.00
41684;BME280;27369;52.030;4.586;2022-07-25T06:00:16;100946.59;;;21.66;100.00
41684;BME280;27369;52.030;4.586;2022-07-25T06:02:41;100950.28;;;21.74;100.00
41684;BME280;27369;52.030;4.586;2022-07-25T06:05:07;100950.34;;;21.81;100.00
41684;BME280;27369;52.030;4.586;2022-07-25T06:07:32;100952.78;;;21.65;100.00
41684;BME280;27369;52.030;4.586;2022-07-25T06:09:58;100951.09;;;21.70;100.00
41684;BME280;27369;52.030;4.586;2022-07-25T06:12:23;100952.88;;;21.73;100.00
41684;BME280;27369;52.030;4.586;2022-07-25T06:14:48;100980.13;;;21.63;100.00
41684;BME280;27369;52.030;4.586;2022-07-25T06:17:14;100964.22;;;21.63;100.00
41684;BME280;27369;52.030;4.586;2022-07-25T06:19:39;100968.41;;;21.48;100.00
41684;BME280;27369;52.030;4.586;2022-07-25T06:22:04;100958.78;;;21.54;100.00
41684;BME280;27369;52.030;4.586;2022-07-25T06:24:29;100967.75;;;21.62;100.00
41684;BME280;27369;52.030;4.586;2022-07-25T06:26:55;100953.41;;;21.47;100.00
41684;BME280;27369;52.030;4.586;2022-07-25T06:29:20;100971.69;;;21.35;100.00
41684;BME280;27369;52.030;4.586;2022-07-25T06:31:45;100976.81;;;21.26;100.00
41684;BME280;27369;52.030;4.586;2022-07-25T06:34:11;100967.56;;;21.02;100.00
41684;BME280;27369;52.030;4.586;2022-07-25T06:36:36;100966.69;;;21.00;100.00
41684;BME280;27369;52.030;4.586;2022-07-25T06:39:01;100967.84;;;21.16;100.00
41684;BME280;27369;52.030;4.586;2022-07-25T06:41:27;100971.38;;;21.17;100.00
41684;BME280;27369;52.030;4.586;2022-07-25T06:43:52;100963.50;;;21.21;100.00
41684;BME280;27369;52.030;4.586;2022-07-25T06:46:18;100974.13;;;21.21;100.00
41684;BME280;27369;52.030;4.586;2022-07-25T06:48:43;100964.34;;;21.19;100.00
41684;BME280;27369;52.030;4.586;2022-07-25T06:51:09;100967.97;;;21.24;100.00
41684;BME280;27369;52.030;4.586;2022-07-25T06:53:34;100965.47;;;21.33;100.00
41684;BME280;27369;52.030;4.586;2022-07-25T06:56:00;100963.16;;;21.51;100.00
41684;BME280;27369;52.030;4.586;2022-07-25T06:58:25;100957.09;;;21.59;100.00
41684;BME280;27369;52.030;4.586;2022-07-25T07:00:50;100952.88;;;21.71;100.00
41684;BME280;27369;52.030;4.586;2022-07-25T07:03:16;100962.66;;;21.76;100.00
41684;BME280;27369;52.030;4.586;2022-07-25T07:05:41;100957.53;;;21.88;100.00
41684;BME280;27369;52.030;4.586;2022-07-25T07:08:07;100958.34;;;21.84;100.00
41684;BME280;27369;52.030;4.586;2022-07-25T07:10:32;100963.56;;;21.78;100.00
41684;BME280;27369;52.030;4.586;2022-07-25T07:13:04;100971.69;;;21.35;100.00
41684;BME280;27369;52.030;4.586;2022-07-25T07:15:30;100976.06;;;21.33;100.00
41684;BME280;27369;52.030;4.586;2022-07-25T07:17:55;100972.50;;;21.31;100.00
41684;BME280;27369;52.030;4.586;2022-07-25T07:20:21;100968.56;;;21.08;100.00
41684;BME280;27369;52.030;4.586;2022-07-25T07:22:46;100967.50;;;20.98;100.00
41684;BME280;27369;52.030;4.586;2022-07-25T07:25:14;100971.59;;;20.82;100.00
41684;BME280;27369;52.030;4.586;2022-07-25T07:27:40;100957.59;;;20.86;100.00
41684;BME280;27369;52.030;4.586;2022-07-25T07:30:05;100954.00;;;20.84;100.00
41684;BME280;27369;52.030;4.586;2022-07-25T07:32:31;100959.31;;;20.84;100.00
41684;BME280;27369;52.030;4.586;2022-07-25T07:34:56;100952.19;;;20.81;100.00
41684;BME280;27369;52.030;4.586;2022-07-25T07:37:21;100948.75;;;20.86;100.00
41684;BME280;27369;52.030;4.586;2022-07-25T07:39:46;100945.00;;;20.74;100.00
41684;BME280;27369;52.030;4.586;2022-07-25T07:42:12;100952.34;;;20.91;100.00
41684;BME280;27369;52.030;4.586;2022-07-25T07:44:37;100940.25;;;21.05;100.00
41684;BME280;27369;52.030;4.586;2022-07-25T07:47:03;100938.09;;;21.33;100.00
41684;BME280;27369;52.030;4.586;2022-07-25T07:49:28;100935.63;;;21.42;100.00
41684;BME280;27369;52.030;4.586;2022-07-25T07:51:53;100920.63;;;21.42;100.00
41684;BME280;27369;52.030;4.586;2022-07-25T07:54:19;100937.72;;;21.10;100.00
41684;BME280;27369;52.030;4.586;2022-07-25T07:57:03;100924.72;;;21.25;100.00
41684;BME280;27369;52.030;4.586;2022-07-25T07:59:28;100924.25;;;21.49;100.00
41684;BME280;27369;52.030;4.586;2022-07-25T08:01:53;100917.81;;;21.92;100.00
41684;BME280;27369;52.030;4.586;2022-07-25T08:04:18;100919.47;;;21.83;100.00
41684;BME280;27369;52.030;4.586;2022-07-25T08:06:44;100919.56;;;21.90;100.00
41684;BME280;27369;52.030;4.586;2022-07-25T08:09:09;100918.88;;;22.04;100.00
41684;BME280;27369;52.030;4.586;2022-07-25T08:11:34;100917.31;;;22.18;100.00
41684;BME280;27369;52.030;4.586;2022-07-25T08:14:00;100912.44;;;22.53;100.00
41684;BME280;27369;52.030;4.586;2022-07-25T08:16:26;100909.72;;;22.47;100.00
41684;BME280;27369;52.030;4.586;2022-07-25T08:18:51;100917.19;;;22.86;100.00
41684;BME280;27369;52.030;4.586;2022-07-25T08:21:17;100934.88;;;22.83;100.00
41684;BME280;27369;52.030;4.586;2022-07-25T08:23:42;100931.34;;;22.87;100.00
41684;BME280;27369;52.030;4.586;2022-07-25T08:26:10;100942.19;;;23.04;100.00
41684;BME280;27369;52.030;4.586;2022-07-25T08:28:38;100948.66;;;23.32;100.00
41684;BME280;27369;52.030;4.586;2022-07-25T08:31:04;100956.81;;;23.58;100.00
41684;BME280;27369;52.030;4.586;2022-07-25T08:33:29;100976.28;;;23.56;100.00
41684;BME280;27369;52.030;4.586;2022-07-25T08:35:55;100995.75;;;23.53;100.00
41684;BME280;27369;52.030;4.586;2022-07-25T08:38:24;100992.47;;;23.82;100.00
41684;BME280;27369;52.030;4.586;2022-07-25T08:40:50;101007.34;;;23.60;100.00
41684;BME280;27369;52.030;4.586;2022-07-25T08:43:17;101018.91;;;23.65;100.00
41684;BME280;27369;52.030;4.586;2022-07-25T08:45:48;101035.63;;;23.50;100.00
41684;BME280;27369;52.030;4.586;2022-07-25T08:48:19;101030.91;;;24.30;100.00
41684;BME280;27369;52.030;4.586;2022-07-25T08:50:45;101046.16;;;24.57;100.00
41684;BME280;27369;52.030;4.586;2022-07-25T08:53:12;101052.66;;;25.32;100.00
41684;BME280;27369;52.030;4.586;2022-07-25T08:55:38;101061.59;;;25.74;100.00
41684;BME280;27369;52.030;4.586;2022-07-25T08:58:03;101084.72;;;25.77;100.00
41684;BME280;27369;52.030;4.586;2022-07-25T09:00:29;101099.75;;;25.38;100.00
41684;BME280;27369;52.030;4.586;2022-07-25T09:02:59;101110.44;;;25.30;100.00
41684;BME280;27369;52.030;4.586;2022-07-25T09:05:26;101123.94;;;24.14;100.00
41684;BME280;27369;52.030;4.586;2022-07-25T09:07:54;101143.13;;;23.76;100.00
41684;BME280;27369;52.030;4.586;2022-07-25T09:10:26;101145.44;;;23.46;100.00
41684;BME280;27369;52.030;4.586;2022-07-25T09:12:58;101146.50;;;23.63;100.00
41684;BME280;27369;52.030;4.586;2022-07-25T09:15:47;101154.31;;;23.46;100.00
41684;BME280;27369;52.030;4.586;2022-07-25T09:18:12;101155.03;;;23.33;100.00
41684;BME280;27369;52.030;4.586;2022-07-25T09:20:50;101163.06;;;23.38;100.00
41684;BME280;27369;52.030;4.586;2022-07-25T09:23:34;101180.50;;;23.14;100.00
41684;BME280;27369;52.030;4.586;2022-07-25T09:26:05;101201.56;;;23.02;100.00
41684;BME280;27369;52.030;4.586;2022-07-25T09:28:42;101196.84;;;22.82;100.00
41684;BME280;27369;52.030;4.586;2022-07-25T09:31:08;101201.16;;;22.74;100.00
41684;BME280;27369;52.030;4.586;2022-07-25T09:36:16;101204.16;;;22.38;100.00
41684;BME280;27369;52.030;4.586;2022-07-25T09:38:52;101208.84;;;22.56;100.00
41684;BME280;27369;52.030;4.586;2022-07-25T09:41:17;101206.63;;;22.85;100.00
41684;BME280;27369;52.030;4.586;2022-07-25T09:43:42;101206.25;;;23.21;100.00
41684;BME280;27369;52.030;4.586;2022-07-25T09:46:09;101205.81;;;23.56;100.00
41684;BME280;27369;52.030;4.586;2022-07-25T09:48:37;101200.09;;;23.98;100.00
41684;BME280;27369;52.030;4.586;2022-07-25T09:51:04;101202.94;;;24.21;100.00
41684;BME280;27369;52.030;4.586;2022-07-25T09:53:30;101201.78;;;23.90;100.00
41684;BME280;27369;52.030;4.586;2022-07-25T09:55:55;101206.56;;;24.28;100.00
41684;BME280;27369;52.030;4.586;2022-07-25T09:58:26;101214.50;;;24.22;100.00
41684;BME280;27369;52.030;4.586;2022-07-25T10:00:55;101222.91;;;24.74;100.00
41684;BME280;27369;52.030;4.586;2022-07-25T10:04:05;101238.75;;;24.54;100.00
41684;BME280;27369;52.030;4.586;2022-07-25T10:06:50;101247.28;;;24.19;100.00
41684;BME280;27369;52.030;4.586;2022-07-25T10:09:17;101263.22;;;24.16;100.00
41684;BME280;27369;52.030;4.586;2022-07-25T10:12:01;101269.31;;;24.05;100.00
41684;BME280;27369;52.030;4.586;2022-07-25T10:14:27;101271.72;;;23.83;100.00
41684;BME280;27369;52.030;4.586;2022-07-25T10:16:52;101267.22;;;23.77;100.00
41684;BME280;27369;52.030;4.586;2022-07-25T10:19:34;101270.13;;;23.96;100.00
41684;BME280;27369;52.030;4.586;2022-07-25T10:21:59;101277.00;;;23.79;100.00
41684;BME280;27369;52.030;4.586;2022-07-25T10:24:32;101295.53;;;23.10;100.00
41684;BME280;27369;52.030;4.586;2022-07-25T10:27:06;101299.22;;;22.63;100.00
41684;BME280;27369;52.030;4.586;2022-07-25T10:29:33;101299.47;;;22.29;100.00
41684;BME280;27369;52.030;4.586;2022-07-25T10:32:06;101304.47;;;22.13;100.00
41684;BME280;27369;52.030;4.586;2022-07-25T10:34:33;101308.47;;;22.35;100.00
41684;BME280;27369;52.030;4.586;2022-07-25T10:39:42;101314.56;;;22.31;100.00
41684;BME280;27369;52.030;4.586;2022-07-25T10:42:19;101315.81;;;22.52;100.00
41684;BME280;27369;52.030;4.586;2022-07-25T10:44:54;101321.50;;;22.73;100.00
41684;BME280;27369;52.030;4.586;2022-07-25T10:47:26;101321.63;;;22.79;100.00
41684;BME280;27369;52.030;4.586;2022-07-25T10:49:56;101328.28;;;22.56;100.00
41684;BME280;27369;52.030;4.586;2022-07-25T10:52:26;101315.50;;;22.86;100.00
41684;BME280;27369;52.030;4.586;2022-07-25T10:54:54;101315.91;;;23.09;100.00
41684;BME280;27369;52.030;4.586;2022-07-25T10:57:19;101322.59;;;23.42;100.00
41684;BME280;27369;52.030;4.586;2022-07-25T10:59:45;101317.44;;;23.54;100.00
41684;BME280;27369;52.030;4.586;2022-07-25T11:02:11;101318.81;;;23.92;100.00
41684;BME280;27369;52.030;4.586;2022-07-25T11:04:57;101323.69;;;23.60;100.00
41684;BME280;27369;52.030;4.586;2022-07-25T11:07:23;101330.63;;;23.47;100.00
41684;BME280;27369;52.030;4.586;2022-07-25T11:09:59;101337.44;;;23.28;100.00
41684;BME280;27369;52.030;4.586;2022-07-25T11:12:25;101336.38;;;23.15;100.00
41684;BME280;27369;52.030;4.586;2022-07-25T11:14:54;101342.31;;;22.99;100.00
41684;BME280;27369;52.030;4.586;2022-07-25T11:17:22;101347.72;;;22.55;100.00
41684;BME280;27369;52.030;4.586;2022-07-25T11:20:08;101360.72;;;22.39;100.00
41684;BME280;27369;52.030;4.586;2022-07-25T11:22:34;101356.19;;;22.32;100.00
41684;BME280;27369;52.030;4.586;2022-07-25T11:25:00;101351.75;;;22.33;100.00
41684;BME280;27369;52.030;4.586;2022-07-25T11:27:31;101360.72;;;22.39;100.00
41684;BME280;27369;52.030;4.586;2022-07-25T11:32:44;101352.75;;;22.90;100.00
41684;BME280;27369;52.030;4.586;2022-07-25T11:35:11;101357.84;;;23.30;100.00
41684;BME280;27369;52.030;4.586;2022-07-25T11:37:40;101354.47;;;23.42;100.00
41684;BME280;27369;52.030;4.586;2022-07-25T11:40:07;101363.53;;;23.55;100.00
41684;BME280;27369;52.030;4.586;2022-07-25T11:42:43;101361.81;;;23.60;100.00
41684;BME280;27369;52.030;4.586;2022-07-25T11:47:41;101366.78;;;23.36;100.00
41684;BME280;27369;52.030;4.586;2022-07-25T11:50:06;101364.22;;;24.07;100.00
41684;BME280;27369;52.030;4.586;2022-07-25T11:52:36;101364.59;;;24.41;100.00
41684;BME280;27369;52.030;4.586;2022-07-25T11:55:10;101373.44;;;24.38;100.00
41684;BME280;27369;52.030;4.586;2022-07-25T11:57:38;101378.97;;;23.81;100.00
41684;BME280;27369;52.030;4.586;2022-07-25T12:00:08;101382.19;;;23.58;100.00
41684;BME280;27369;52.030;4.586;2022-07-25T12:02:34;101375.94;;;24.23;100.00
41684;BME280;27369;52.030;4.586;2022-07-25T12:05:06;101381.06;;;24.05;100.00
41684;BME280;27369;52.030;4.586;2022-07-25T12:07:43;101378.38;;;24.03;100.00
41684;BME280;27369;52.030;4.586;2022-07-25T12:10:21;101377.63;;;24.15;100.00
41684;BME280;27369;52.030;4.586;2022-07-25T12:12:54;101374.16;;;24.20;100.00
41684;BME280;27369;52.030;4.586;2022-07-25T12:15:31;101386.28;;;23.97;100.00
41684;BME280;27369;52.030;4.586;2022-07-25T12:17:58;101383.63;;;23.97;100.00
41684;BME280;27369;52.030;4.586;2022-07-25T12:20:26;101378.94;;;24.51;100.00
41684;BME280;27369;52.030;4.586;2022-07-25T12:22:54;101384.78;;;24.19;100.00
41684;BME280;27369;52.030;4.586;2022-07-25T12:25:21;101394.03;;;23.79;100.00
41684;BME280;27369;52.030;4.586;2022-07-25T12:27:47;101391.28;;;23.72;100.00
41684;BME280;27369;52.030;4.586;2022-07-25T12:30:13;101403.03;;;23.30;100.00
41684;BME280;27369;52.030;4.586;2022-07-25T12:32:39;101390.75;;;24.01;100.00
41684;BME280;27369;52.030;4.586;2022-07-25T12:35:05;101390.88;;;24.09;100.00
41684;BME280;27369;52.030;4.586;2022-07-25T12:37:32;101384.06;;;24.34;100.00
41684;BME280;27369;52.030;4.586;2022-07-25T12:39:57;101390.56;;;24.57;100.00
41684;BME280;27369;52.030;4.586;2022-07-25T12:42:23;101410.03;;;23.83;100.00
41684;BME280;27369;52.030;4.586;2022-07-25T12:44:48;101403.34;;;24.14;100.00
41684;BME280;27369;52.030;4.586;2022-07-25T12:47:14;101423.91;;;23.62;100.00
41684;BME280;27369;52.030;4.586;2022-07-25T12:49:39;101418.34;;;23.48;100.00